Main page
METAR-TAF:

Airports :

Mexicali, Mexico

General Rodolfo Sánchez Taboada International Airport

latitude: 32-37-50N, longitude: 115-14-30W, elevation: 22 m

Current weather observation

The report was made 18 minutes ago, at 20:56 UTC
Wind 2 kt from the South/Southwest
Temperature 27°C
Humidity 21%
Pressure 1011 hPa
Visibility: 16.1 km
Few clouds at a height of 5000 ft

METAR: MMML 012056Z 21002KT 10SM FEW050 27/03 A2984 RMK 8/100

Time: 16:14 (21:14 UTC)

Forecast

The report was made 4 hours and 19 minutes ago, at 16:55 UTC
Forecast valid from 01 at 18 UTC to 02 at 18 UTC
Wind 10 kt from the North/Northeast
Visibility: 10 km
Clear sky
From 02 at 0300 UTC
Wind 6 kt from the South
Visibility: 10 km
Clear sky
From 02 at 1600 UTC
Wind 8 kt from the East/Northeast
Visibility: 10 km
Clear sky

TAF: MMML 011655Z 0118/0218 03010KT P6SM SKC FM020300 18006KT P6SM SKC FM021600 06008KT P6SM SKC

METAR-TAF

Weather observations and forecasts of more than 4000 airports (METAR and TAF reports).

The available stations are represented by yellow and red dots on the map.

Hover mouse over dot to see the name of the station.

Then click to see weather observations and forecasts.

To change the map : click on the green buttons with a black cross to zoom in, on the green button with a dash to zoom out, or on the green arrows for adjacent maps.


METAR-TAF: